Time;durP1;ratioP1;P1;durP2;ratioP2;P2;SDS_P1;SDS_P2;PMS_P1;PMS_P2;Temp;Humidity;BMP_temperature;BMP_pressure;BME280_temperature;BME280_humidity;BME280_pressure;Samples;Min_cycle;Max_cycle;Signal;HPM_P1;HPM_P2
2022/02/18 00:01:05;;;;;;;;;1.75;1.25;;;;;;;;5075058;28;46219;-70
2022/02/18 00:03:31;;;;;;;;;3.50;2.00;;;;;;;;5071671;28;45329;-70
2022/02/18 00:05:57;;;;;;;;;2.75;2.25;;;;;;;;5074616;28;48197;-70
2022/02/18 00:08:23;;;;;;;;;2.50;1.25;;;;;;;;5075206;27;45484;-70
2022/02/18 00:10:48;;;;;;;;;4.75;2.50;;;;;;;;5073324;28;46054;-70
2022/02/18 00:13:14;;;;;;;;;1.00;1.00;;;;;;;;5075321;28;45268;-70
2022/02/18 00:15:39;;;;;;;;;3.00;2.00;;;;;;;;5075876;28;45284;-70
2022/02/18 00:18:05;;;;;;;;;1.25;1.25;;;;;;;;5075694;28;45516;-70
2022/02/18 00:20:31;;;;;;;;;2.00;2.00;;;;;;;;5074383;28;47107;-70
2022/02/18 00:22:56;;;;;;;;;1.00;1.00;;;;;;;;5074393;28;45397;-70
2022/02/18 00:25:22;;;;;;;;;4.25;2.25;;;;;;;;5075791;27;45274;-70
2022/02/18 00:27:47;;;;;;;;;4.00;1.00;;;;;;;;5075478;27;45267;-70
2022/02/18 00:30:12;;;;;;;;;1.75;1.25;;;;;;;;5074930;27;45724;-70
2022/02/18 00:32:38;;;;;;;;;2.00;2.00;;;;;;;;5074297;27;45453;-70
2022/02/18 00:35:04;;;;;;;;;3.50;2.00;;;;;;;;5074805;27;45385;-70
2022/02/18 00:37:29;;;;;;;;;4.00;1.75;;;;;;;;5074759;28;45400;-70
2022/02/18 00:39:56;;;;;;;;;1.75;1.00;;;;;;;;5074374;28;45576;-71
2022/02/18 00:42:21;;;;;;;;;1.00;1.00;;;;;;;;5060734;28;45461;-70
2022/02/18 00:44:46;;;;;;;;;2.75;1.25;;;;;;;;5072942;28;45508;-70
2022/02/18 00:47:12;;;;;;;;;3.00;2.00;;;;;;;;5069476;28;45319;-70
2022/02/18 00:49:38;;;;;;;;;5.00;1.75;;;;;;;;5074126;28;45371;-70
2022/02/18 00:52:03;;;;;;;;;3.25;2.25;;;;;;;;5058369;28;45387;-70
2022/02/18 00:54:29;;;;;;;;;4.00;2.25;;;;;;;;5070812;27;45322;-70
2022/02/18 00:56:54;;;;;;;;;1.75;1.75;;;;;;;;5074017;28;45554;-70
2022/02/18 00:59:19;;;;;;;;;4.25;2.00;;;;;;;;5074446;27;45974;-70
2022/02/18 01:01:45;;;;;;;;;5.00;3.00;;;;;;;;5073896;28;45371;-70
2022/02/18 01:04:10;;;;;;;;;5.25;3.25;;;;;;;;5074545;28;45449;-70
2022/02/18 01:06:35;;;;;;;;;3.00;2.00;;;;;;;;5079633;27;45315;-70
2022/02/18 01:09:00;;;;;;;;;3.75;2.00;;;;;;;;5074425;27;46064;-70
2022/02/18 01:11:26;;;;;;;;;2.00;2.00;;;;;;;;5073935;28;45343;-70
2022/02/18 01:13:51;;;;;;;;;1.00;1.00;;;;;;;;5074242;28;45575;-70
2022/02/18 01:16:16;;;;;;;;;4.75;2.00;;;;;;;;5073583;28;45507;-70
2022/02/18 01:18:41;;;;;;;;;4.00;3.00;;;;;;;;5074274;28;45540;-70
2022/02/18 01:21:07;;;;;;;;;5.75;2.25;;;;;;;;5074329;28;45473;-70
2022/02/18 01:23:32;;;;;;;;;1.00;1.00;;;;;;;;5077844;27;45576;-71
2022/02/18 01:25:57;;;;;;;;;3.25;2.00;;;;;;;;5077481;28;45319;-70
2022/02/18 01:28:22;;;;;;;;;3.00;1.25;;;;;;;;5077238;27;46049;-70
2022/02/18 01:30:48;;;;;;;;;2.25;2.25;;;;;;;;5077689;28;45525;-71
2022/02/18 01:33:13;;;;;;;;;2.75;2.75;;;;;;;;5078255;28;45339;-70
2022/02/18 01:35:38;;;;;;;;;3.75;1.25;;;;;;;;5077096;28;45566;-70
2022/02/18 01:38:05;;;;;;;;;5.75;2.00;;;;;;;;5077003;28;45413;-70
2022/02/18 01:40:30;;;;;;;;;4.00;3.00;;;;;;;;5077491;28;45419;-70
2022/02/18 01:42:56;;;;;;;;;6.00;3.00;;;;;;;;5077257;27;45525;-70
2022/02/18 01:45:21;;;;;;;;;4.00;1.50;;;;;;;;5077311;28;45467;-70
2022/02/18 01:47:46;;;;;;;;;5.00;2.50;;;;;;;;5077149;27;46926;-69
2022/02/18 01:50:12;;;;;;;;;6.25;1.75;;;;;;;;5076933;28;48648;-70
2022/02/18 01:52:39;;;;;;;;;3.25;2.00;;;;;;;;5077134;28;45353;-70
2022/02/18 01:55:10;;;;;;;;;1.75;1.00;;;;;;;;5063845;28;45550;-70
2022/02/18 01:57:35;;;;;;;;;4.75;2.00;;;;;;;;5073409;28;46403;-70
2022/02/18 02:00:01;;;;;;;;;5.25;2.50;;;;;;;;5076799;28;45410;-70
2022/02/18 02:02:26;;;;;;;;;4.00;2.00;;;;;;;;5076864;28;45565;-70
2022/02/18 02:04:51;;;;;;;;;5.25;3.00;;;;;;;;5077027;28;45868;-70
2022/02/18 02:07:16;;;;;;;;;1.75;1.75;;;;;;;;5075532;28;47194;-70
2022/02/18 02:09:42;;;;;;;;;3.50;1.50;;;;;;;;5076807;28;45368;-71
2022/02/18 02:12:08;;;;;;;;;3.00;2.50;;;;;;;;5076770;28;45484;-70
2022/02/18 02:14:33;;;;;;;;;4.25;2.00;;;;;;;;5075732;28;45414;-71
2022/02/18 02:16:58;;;;;;;;;4.00;1.00;;;;;;;;5073146;27;46251;-70
2022/02/18 02:19:23;;;;;;;;;4.25;2.00;;;;;;;;5063471;28;45436;-70
2022/02/18 02:21:50;;;;;;;;;2.25;1.75;;;;;;;;5076487;27;45398;-70
2022/02/18 02:24:15;;;;;;;;;5.25;2.25;;;;;;;;5075848;28;45286;-70
2022/02/18 02:26:41;;;;;;;;;2.00;2.00;;;;;;;;5076685;28;46581;-70
2022/02/18 02:29:06;;;;;;;;;2.75;2.00;;;;;;;;5076200;27;45366;-70
2022/02/18 02:31:31;;;;;;;;;5.00;3.25;;;;;;;;5077235;27;45445;-70
2022/02/18 02:33:56;;;;;;;;;3.00;2.00;;;;;;;;5076040;28;45432;-70
2022/02/18 02:36:22;;;;;;;;;3.50;2.00;;;;;;;;5076322;28;46740;-70
2022/02/18 02:38:48;;;;;;;;;3.00;3.00;;;;;;;;5075954;28;45409;-70
2022/02/18 02:41:14;;;;;;;;;4.00;2.75;;;;;;;;5076512;27;45443;-70
2022/02/18 02:43:39;;;;;;;;;2.33;2.33;;;;;;;;5076238;27;45367;-70
2022/02/18 02:46:04;;;;;;;;;2.00;2.00;;;;;;;;5075885;28;45993;-70
2022/02/18 02:48:29;;;;;;;;;5.00;3.25;;;;;;;;5076732;28;45285;-70
2022/02/18 02:50:55;;;;;;;;;2.00;2.00;;;;;;;;5076323;28;45410;-70
2022/02/18 02:53:20;;;;;;;;;2.00;2.00;;;;;;;;5075736;28;45450;-70
2022/02/18 02:55:45;;;;;;;;;5.50;1.75;;;;;;;;5075530;27;45488;-70
2022/02/18 02:58:10;;;;;;;;;2.00;2.00;;;;;;;;5075586;28;45432;-70
2022/02/18 03:00:35;;;;;;;;;5.25;1.25;;;;;;;;5076859;28;45409;-70
2022/02/18 03:03:01;;;;;;;;;2.25;1.25;;;;;;;;5076223;28;45611;-71
2022/02/18 03:05:26;;;;;;;;;2.75;2.00;;;;;;;;5076086;28;47544;-70
2022/02/18 03:07:51;;;;;;;;;2.00;1.50;;;;;;;;5075397;28;45381;-70
2022/02/18 03:10:16;;;;;;;;;3.50;2.00;;;;;;;;5075548;27;45473;-70
2022/02/18 03:12:41;;;;;;;;;2.00;2.00;;;;;;;;5076482;28;45525;-70
2022/02/18 03:15:07;;;;;;;;;3.50;1.25;;;;;;;;5075689;28;46228;-70
2022/02/18 03:17:32;;;;;;;;;2.75;2.00;;;;;;;;5076418;28;45433;-70
2022/02/18 03:19:58;;;;;;;;;3.25;2.25;;;;;;;;5075665;27;45460;-70
2022/02/18 03:22:23;;;;;;;;;3.75;2.00;;;;;;;;5075925;28;45486;-70
2022/02/18 03:24:48;;;;;;;;;1.00;1.00;;;;;;;;5075759;28;46191;-70
2022/02/18 03:27:13;;;;;;;;;1.25;0.50;;;;;;;;5076025;27;45318;-71
2022/02/18 03:29:38;;;;;;;;;3.50;1.00;;;;;;;;5075404;28;45377;-70
2022/02/18 03:32:04;;;;;;;;;3.50;1.25;;;;;;;;5075098;28;45199;-70
2022/02/18 03:34:31;;;;;;;;;2.00;2.00;;;;;;;;5071818;27;45957;-70
2022/02/18 03:36:56;;;;;;;;;4.00;0.75;;;;;;;;5074538;28;45460;-70
2022/02/18 03:39:21;;;;;;;;;3.25;1.25;;;;;;;;5076770;28;45346;-70
2022/02/18 03:41:46;;;;;;;;;2.75;2.75;;;;;;;;5074770;28;45463;-70
2022/02/18 03:44:12;;;;;;;;;2.00;1.00;;;;;;;;5074460;27;46263;-70
2022/02/18 03:46:37;;;;;;;;;1.25;1.25;;;;;;;;5074504;28;45428;-71
2022/02/18 03:49:02;;;;;;;;;2.25;1.00;;;;;;;;5075401;28;45382;-70
2022/02/18 03:51:27;;;;;;;;;2.50;2.50;;;;;;;;5076241;28;45599;-70
2022/02/18 03:53:53;;;;;;;;;3.25;1.25;;;;;;;;5074439;27;45499;-70
2022/02/18 03:56:19;;;;;;;;;0.50;0.25;;;;;;;;5074494;28;45467;-71
2022/02/18 03:58:44;;;;;;;;;1.75;1.75;;;;;;;;5065054;28;45493;-70
2022/02/18 04:01:10;;;;;;;;;3.25;1.00;;;;;;;;5074935;28;48487;-70
2022/02/18 04:03:35;;;;;;;;;3.50;2.00;;;;;;;;5075770;28;45468;-70
2022/02/18 04:06:00;;;;;;;;;0.50;0.50;;;;;;;;5074407;27;45567;-71
2022/02/18 04:08:26;;;;;;;;;1.00;1.00;;;;;;;;5075089;27;46530;-69
2022/02/18 04:10:51;;;;;;;;;4.00;1.00;;;;;;;;5082245;27;45415;-71
2022/02/18 04:13:16;;;;;;;;;2.00;2.00;;;;;;;;5074495;28;45531;-71
2022/02/18 04:15:41;;;;;;;;;2.50;2.00;;;;;;;;5075332;28;45377;-70
2022/02/18 04:18:07;;;;;;;;;1.00;0.00;;;;;;;;5075941;28;45434;-70
2022/02/18 04:20:32;;;;;;;;;1.00;1.00;;;;;;;;5074759;27;45521;-70
2022/02/18 04:22:57;;;;;;;;;1.25;1.25;;;;;;;;5074586;27;46938;-70
2022/02/18 04:25:23;;;;;;;;;2.50;0.75;;;;;;;;5074803;28;45409;-70
2022/02/18 04:27:55;;;;;;;;;1.00;1.00;;;;;;;;5075312;28;45906;-70
2022/02/18 04:30:20;;;;;;;;;3.50;1.25;;;;;;;;5071497;28;45457;-71
2022/02/18 04:32:45;;;;;;;;;0.50;0.50;;;;;;;;5074686;28;47078;-71
2022/02/18 04:35:11;;;;;;;;;2.75;1.00;;;;;;;;5074627;28;45488;-70
2022/02/18 04:37:36;;;;;;;;;1.00;1.00;;;;;;;;5075030;28;45278;-71
2022/02/18 04:40:02;;;;;;;;;1.00;1.00;;;;;;;;5074405;27;45647;-70
2022/02/18 04:42:27;;;;;;;;;2.50;1.25;;;;;;;;5070045;28;48202;-70
2022/02/18 04:44:52;;;;;;;;;2.00;1.00;;;;;;;;5074158;27;45527;-70
2022/02/18 04:47:18;;;;;;;;;0.50;0.50;;;;;;;;5074935;28;45223;-70
2022/02/18 04:49:45;;;;;;;;;2.33;1.00;;;;;;;;5073300;28;45538;-70
2022/02/18 04:52:10;;;;;;;;;3.00;2.75;;;;;;;;5058603;28;46480;-71
2022/02/18 04:54:35;;;;;;;;;0.75;0.75;;;;;;;;5074486;28;45330;-70
2022/02/18 04:57:01;;;;;;;;;1.00;1.00;;;;;;;;5076703;28;45350;-70
2022/02/18 04:59:26;;;;;;;;;1.00;1.00;;;;;;;;5077771;28;45701;-70
2022/02/18 05:01:51;;;;;;;;;1.00;1.00;;;;;;;;5077817;28;45695;-71
2022/02/18 05:04:16;;;;;;;;;1.00;1.00;;;;;;;;5077755;27;45592;-70
2022/02/18 05:06:41;;;;;;;;;0.75;0.00;;;;;;;;5077303;28;45290;-71
2022/02/18 05:09:07;;;;;;;;;0.33;0.33;;;;;;;;5065619;28;45513;-70
2022/02/18 05:11:32;;;;;;;;;0.75;0.75;;;;;;;;5073403;28;45390;-70
2022/02/18 05:13:57;;;;;;;;;1.00;1.00;;;;;;;;5077472;27;45374;-70
2022/02/18 05:16:22;;;;;;;;;1.00;1.00;;;;;;;;5078479;28;45526;-71
2022/02/18 05:18:47;;;;;;;;;4.50;1.00;;;;;;;;5077487;28;45367;-71
2022/02/18 05:21:15;;;;;;;;;1.75;1.00;;;;;;;;5091120;27;46372;-71
2022/02/18 05:23:41;;;;;;;;;2.00;1.50;;;;;;;;5079436;27;45503;-70
2022/02/18 05:26:06;;;;;;;;;1.00;1.00;;;;;;;;5077551;28;45470;-70
2022/02/18 05:28:31;;;;;;;;;1.00;1.00;;;;;;;;5077995;28;45358;-70
2022/02/18 05:30:56;;;;;;;;;3.00;0.75;;;;;;;;5077414;28;46219;-70
2022/02/18 05:33:21;;;;;;;;;1.25;0.25;;;;;;;;5078521;28;45397;-71
2022/02/18 05:35:47;;;;;;;;;0.00;0.00;;;;;;;;5077065;28;45496;-70
2022/02/18 05:38:12;;;;;;;;;3.00;1.00;;;;;;;;5077383;28;45400;-70
2022/02/18 05:40:37;;;;;;;;;1.25;1.00;;;;;;;;5077232;28;45967;-70
2022/02/18 05:43:04;;;;;;;;;1.25;0.00;;;;;;;;5077350;28;45566;-71
2022/02/18 05:45:29;;;;;;;;;1.00;1.00;;;;;;;;5078605;28;45232;-70
2022/02/18 05:47:54;;;;;;;;;1.00;1.00;;;;;;;;5066127;28;45311;-71
2022/02/18 05:50:20;;;;;;;;;4.00;2.00;;;;;;;;5103071;27;46144;-70
2022/02/18 05:52:45;;;;;;;;;2.75;1.00;;;;;;;;5075461;28;45414;-71
2022/02/18 05:55:11;;;;;;;;;1.00;1.00;;;;;;;;5063829;28;45926;-70
2022/02/18 05:57:36;;;;;;;;;0.00;0.00;;;;;;;;5077769;27;45385;-70
2022/02/18 06:00:02;;;;;;;;;1.50;0.00;;;;;;;;5072341;28;47473;-70
2022/02/18 06:02:27;;;;;;;;;0.25;0.25;;;;;;;;5077167;27;45314;-71
2022/02/18 06:04:52;;;;;;;;;1.50;0.00;;;;;;;;5077157;28;45277;-71
2022/02/18 06:07:18;;;;;;;;;3.00;0.50;;;;;;;;5075430;28;45529;-71
2022/02/18 06:09:44;;;;;;;;;0.00;0.00;;;;;;;;5076054;28;47141;-71
2022/02/18 06:12:09;;;;;;;;;1.00;1.00;;;;;;;;5078036;27;45522;-70
2022/02/18 06:14:34;;;;;;;;;1.50;0.00;;;;;;;;5076723;28;45603;-68
2022/02/18 06:16:59;;;;;;;;;0.67;0.00;;;;;;;;5076894;27;45292;-71
2022/02/18 06:19:25;;;;;;;;;1.00;1.00;;;;;;;;5076641;28;47275;-71
2022/02/18 06:21:50;;;;;;;;;1.75;0.00;;;;;;;;5076218;28;45531;-71
2022/02/18 06:24:16;;;;;;;;;0.75;0.75;;;;;;;;5077605;28;45412;-71
2022/02/18 06:26:41;;;;;;;;;1.00;0.33;;;;;;;;5076877;28;45357;-70
2022/02/18 06:29:06;;;;;;;;;1.00;1.00;;;;;;;;5076407;28;46166;-71
2022/02/18 06:31:33;;;;;;;;;0.00;0.00;;;;;;;;5076603;28;45260;-70
2022/02/18 06:33:58;;;;;;;;;2.00;0.67;;;;;;;;5076566;28;45557;-70
2022/02/18 06:36:23;;;;;;;;;0.33;0.00;;;;;;;;5077006;28;45305;-70
2022/02/18 06:38:48;;;;;;;;;1.25;0.00;;;;;;;;5076505;27;45338;-70
2022/02/18 06:41:14;;;;;;;;;0.00;0.00;;;;;;;;5076913;27;45464;-70
2022/02/18 06:43:39;;;;;;;;;0.00;0.00;;;;;;;;5077184;28;45450;-70
2022/02/18 06:46:04;;;;;;;;;0.00;0.00;;;;;;;;5077105;27;45230;-70
2022/02/18 06:48:30;;;;;;;;;0.00;0.00;;;;;;;;5078735;27;47032;-70
2022/02/18 06:50:55;;;;;;;;;0.00;0.00;;;;;;;;5076528;27;45492;-71
2022/02/18 06:53:20;;;;;;;;;0.67;0.00;;;;;;;;5077766;27;45431;-71
2022/02/18 06:55:46;;;;;;;;;1.00;0.00;;;;;;;;5075829;28;45343;-71
2022/02/18 06:58:11;;;;;;;;;1.25;0.25;;;;;;;;5075955;28;45881;-70
2022/02/18 07:00:36;;;;;;;;;0.00;0.00;;;;;;;;5076971;28;45460;-70
2022/02/18 07:03:03;;;;;;;;;0.00;0.00;;;;;;;;5076380;28;45399;-70
2022/02/18 07:05:28;;;;;;;;;1.00;1.00;;;;;;;;5075717;27;45379;-70
2022/02/18 07:07:53;;;;;;;;;1.25;0.00;;;;;;;;5075824;28;46385;-71
2022/02/18 07:10:18;;;;;;;;;0.00;0.00;;;;;;;;5074346;28;45417;-70
2022/02/18 07:12:43;;;;;;;;;1.00;1.00;;;;;;;;5076644;28;45316;-70
2022/02/18 07:15:09;;;;;;;;;1.00;0.00;;;;;;;;5076757;28;45456;-70
2022/02/18 07:17:34;;;;;;;;;0.75;0.75;;;;;;;;5075127;28;45881;-72
2022/02/18 07:20:01;;;;;;;;;0.00;0.00;;;;;;;;5076883;28;44730;-71
2022/02/18 07:22:26;;;;;;;;;0.00;0.00;;;;;;;;5075317;28;45524;-69
2022/02/18 07:24:52;;;;;;;;;0.00;0.00;;;;;;;;5075184;28;45306;-68
2022/02/18 07:27:17;;;;;;;;;1.00;0.00;;;;;;;;5076213;27;45425;-71
2022/02/18 07:29:43;;;;;;;;;0.00;0.00;;;;;;;;5075682;28;45401;-70
2022/02/18 07:32:08;;;;;;;;;0.50;0.00;;;;;;;;5075611;28;45654;-70
2022/02/18 07:34:34;;;;;;;;;1.00;0.00;;;;;;;;5076533;27;45687;-70
2022/02/18 07:36:59;;;;;;;;;0.00;0.00;;;;;;;;5075026;28;47237;-71
2022/02/18 07:39:24;;;;;;;;;0.00;0.00;;;;;;;;5076310;28;45297;-70
2022/02/18 07:41:50;;;;;;;;;1.00;0.00;;;;;;;;5075297;28;45495;-68
2022/02/18 07:44:15;;;;;;;;;1.00;0.00;;;;;;;;5074997;28;45404;-69
2022/02/18 07:46:41;;;;;;;;;1.00;0.00;;;;;;;;5074217;28;45444;-70
2022/02/18 07:49:06;;;;;;;;;0.00;0.00;;;;;;;;5073345;28;45615;-70
2022/02/18 07:51:31;;;;;;;;;1.00;1.00;;;;;;;;5076098;28;45418;-70
2022/02/18 07:53:56;;;;;;;;;0.33;0.33;;;;;;;;5075295;28;45525;-70
2022/02/18 07:56:22;;;;;;;;;1.00;0.00;;;;;;;;5074989;27;46074;-70
2022/02/18 07:58:47;;;;;;;;;0.00;0.00;;;;;;;;5074674;28;45306;-69
2022/02/18 08:01:17;;;;;;;;;0.00;0.00;;;;;;;;5075106;28;45392;-70
2022/02/18 08:03:42;;;;;;;;;1.67;0.00;;;;;;;;5075496;28;45444;-70
2022/02/18 08:06:08;;;;;;;;;0.00;0.00;;;;;;;;5075646;28;45953;-70
2022/02/18 08:08:34;;;;;;;;;1.00;0.00;;;;;;;;5074119;27;45259;-70
2022/02/18 08:10:59;;;;;;;;;0.00;0.00;;;;;;;;5075154;28;45429;-70
2022/02/18 08:13:25;;;;;;;;;1.00;0.00;;;;;;;;5082323;27;45442;-70
2022/02/18 08:15:50;;;;;;;;;0.00;0.00;;;;;;;;5074514;27;46032;-69
2022/02/18 08:18:19;;;;;;;;;0.00;0.00;;;;;;;;5075724;28;45375;-70
2022/02/18 08:20:45;;;;;;;;;0.00;0.00;;;;;;;;5072114;28;45488;-69
2022/02/18 08:23:10;;;;;;;;;0.00;0.00;;;;;;;;5073510;27;45413;-70
2022/02/18 08:25:35;;;;;;;;;1.00;1.00;;;;;;;;5073990;28;45558;-70
2022/02/18 08:28:00;;;;;;;;;1.33;0.00;;;;;;;;5071529;28;45550;-69
2022/02/18 08:30:26;;;;;;;;;0.00;0.00;;;;;;;;5071930;27;45794;-69
2022/02/18 08:32:51;;;;;;;;;0.67;0.67;;;;;;;;5072749;28;45477;-70
2022/02/18 08:35:16;;;;;;;;;0.00;0.00;;;;;;;;5073075;28;46329;-70
2022/02/18 08:37:41;;;;;;;;;0.00;0.00;;;;;;;;5073569;28;45460;-69
2022/02/18 08:40:07;;;;;;;;;0.00;0.00;;;;;;;;5073566;28;45527;-70
2022/02/18 08:42:32;;;;;;;;;0.00;0.00;;;;;;;;5077925;28;45466;-69
2022/02/18 08:44:57;;;;;;;;;1.67;0.33;;;;;;;;5074104;28;45451;-70
2022/02/18 08:47:22;;;;;;;;;1.00;0.00;;;;;;;;5073316;28;45478;-70
2022/02/18 08:49:47;;;;;;;;;0.00;0.00;;;;;;;;5073709;28;45484;-69
2022/02/18 08:52:13;;;;;;;;;0.67;0.00;;;;;;;;5075703;27;45357;-69
2022/02/18 08:54:39;;;;;;;;;0.00;0.00;;;;;;;;5076050;27;46403;-70
2022/02/18 08:57:04;;;;;;;;;0.00;0.00;;;;;;;;5075926;28;45472;-70
2022/02/18 08:59:29;;;;;;;;;0.00;0.00;;;;;;;;5075310;28;48919;-70
2022/02/18 09:01:54;;;;;;;;;1.00;0.00;;;;;;;;5072140;27;45464;-70
2022/02/18 09:04:20;;;;;;;;;0.00;0.00;;;;;;;;5076284;27;45877;-70
2022/02/18 09:06:45;;;;;;;;;0.00;0.00;;;;;;;;5076447;28;45326;-70
2022/02/18 09:09:10;;;;;;;;;0.33;0.00;;;;;;;;5077860;28;45251;-69
2022/02/18 09:11:35;;;;;;;;;0.00;0.00;;;;;;;;5075961;28;46297;-70
2022/02/18 09:14:01;;;;;;;;;2.00;0.00;;;;;;;;5075882;28;46301;-70
2022/02/18 09:16:27;;;;;;;;;0.33;0.00;;;;;;;;5074782;28;45409;-70
2022/02/18 09:18:52;;;;;;;;;0.00;0.00;;;;;;;;5075981;27;45486;-70
2022/02/18 09:21:17;;;;;;;;;1.00;0.00;;;;;;;;5078588;28;45447;-70
2022/02/18 09:23:42;;;;;;;;;0.00;0.00;;;;;;;;5076574;27;46386;-70
2022/02/18 09:26:08;;;;;;;;;0.00;0.00;;;;;;;;5076724;27;45357;-70
2022/02/18 09:28:33;;;;;;;;;1.00;0.00;;;;;;;;5074621;27;45568;-70
2022/02/18 09:30:58;;;;;;;;;0.00;0.00;;;;;;;;5077543;28;45616;-70
2022/02/18 09:33:25;;;;;;;;;0.00;0.00;;;;;;;;5078144;28;45502;-70
2022/02/18 09:35:50;;;;;;;;;0.00;0.00;;;;;;;;5076973;28;45634;-71
2022/02/18 09:38:16;;;;;;;;;2.00;0.00;;;;;;;;5077717;28;45317;-70
2022/02/18 09:40:41;;;;;;;;;0.00;0.00;;;;;;;;5077837;28;45343;-70
2022/02/18 09:43:06;;;;;;;;;0.00;0.00;;;;;;;;5061397;28;47048;-70
2022/02/18 09:45:32;;;;;;;;;0.00;0.00;;;;;;;;5064034;28;45181;-70
2022/02/18 09:47:57;;;;;;;;;1.00;1.00;;;;;;;;5077871;27;45229;-70
2022/02/18 09:50:23;;;;;;;;;0.00;0.00;;;;;;;;5076840;28;45475;-70
2022/02/18 09:52:48;;;;;;;;;0.00;0.00;;;;;;;;5076804;28;45603;-70
2022/02/18 09:55:13;;;;;;;;;0.00;0.00;;;;;;;;5076396;28;45286;-70
2022/02/18 09:57:42;;;;;;;;;0.00;0.00;;;;;;;;5077383;28;45465;-70
2022/02/18 10:00:08;;;;;;;;;0.00;0.00;;;;;;;;5077499;28;45604;-70
2022/02/18 10:02:35;;;;;;;;;0.00;0.00;;;;;;;;5076469;28;46253;-70
2022/02/18 10:05:00;;;;;;;;;0.00;0.00;;;;;;;;5081386;27;45416;-70
2022/02/18 10:07:26;;;;;;;;;0.00;0.00;;;;;;;;5063705;28;45434;-70
2022/02/18 10:09:51;;;;;;;;;0.00;0.00;;;;;;;;5060588;28;45378;-70
2022/02/18 10:12:16;;;;;;;;;0.00;0.00;;;;;;;;5077366;28;46122;-70
2022/02/18 10:14:51;;;;;;;;;0.00;0.00;;;;;;;;5076732;28;45509;-70
2022/02/18 10:17:16;;;;;;;;;0.00;0.00;;;;;;;;5078332;27;45499;-70
2022/02/18 10:19:51;;;;;;;;;0.25;0.00;;;;;;;;5076567;28;45283;-70
2022/02/18 10:22:26;;;;;;;;;0.00;0.00;;;;;;;;5076229;28;46198;-70
2022/02/18 10:24:52;;;;;;;;;0.00;0.00;;;;;;;;5076848;28;45353;-70
2022/02/18 10:27:20;;;;;;;;;0.00;0.00;;;;;;;;5075204;28;45552;-70
2022/02/18 10:29:54;;;;;;;;;0.00;0.00;;;;;;;;5067785;27;45437;-70
2022/02/18 10:32:20;;;;;;;;;0.00;0.00;;;;;;;;5065068;28;46236;-70
2022/02/18 10:34:52;;;;;;;;;1.25;0.00;;;;;;;;5063688;28;45405;-70
2022/02/18 10:37:19;;;;;;;;;0.00;0.00;;;;;;;;5077006;28;45370;-71
2022/02/18 10:39:46;;;;;;;;;0.00;0.00;;;;;;;;5076815;28;45265;-70
2022/02/18 10:42:13;;;;;;;;;0.00;0.00;;;;;;;;5064155;27;47193;-70
2022/02/18 10:44:38;;;;;;;;;0.00;0.00;;;;;;;;5073490;28;45548;-71
2022/02/18 10:47:07;;;;;;;;;0.00;0.00;;;;;;;;5076727;27;45459;-70
2022/02/18 10:49:34;;;;;;;;;0.00;0.00;;;;;;;;5076438;27;45477;-70
2022/02/18 10:52:03;;;;;;;;;0.00;0.00;;;;;;;;5075837;28;45402;-70
2022/02/18 10:54:34;;;;;;;;;0.00;0.00;;;;;;;;5076470;28;45453;-70
2022/02/18 10:57:18;;;;;;;;;1.00;0.00;;;;;;;;5075731;27;45428;-70
2022/02/18 10:59:44;;;;;;;;;0.00;0.00;;;;;;;;5076401;28;45457;-71
2022/02/18 11:02:09;;;;;;;;;0.00;0.00;;;;;;;;5076410;27;45694;-70
2022/02/18 11:04:35;;;;;;;;;0.00;0.00;;;;;;;;5076244;27;45276;-70
2022/02/18 11:07:10;;;;;;;;;3.00;0.00;;;;;;;;5076427;27;45150;-71
2022/02/18 11:09:35;;;;;;;;;0.00;0.00;;;;;;;;5073142;28;45329;-71
2022/02/18 11:12:06;;;;;;;;;0.67;0.00;;;;;;;;5075568;27;45467;-71
2022/02/18 11:14:32;;;;;;;;;0.00;0.00;;;;;;;;5071112;27;45545;-71
2022/02/18 11:16:57;;;;;;;;;0.00;0.00;;;;;;;;5074596;28;45421;-71
2022/02/18 11:19:23;;;;;;;;;0.00;0.00;;;;;;;;5073094;28;45391;-71
2022/02/18 11:21:49;;;;;;;;;0.00;0.00;;;;;;;;5073124;28;45536;-72
2022/02/18 11:24:15;;;;;;;;;0.00;0.00;;;;;;;;5076854;28;45400;-71
2022/02/18 11:26:41;;;;;;;;;0.00;0.00;;;;;;;;5075498;27;45195;-71
2022/02/18 11:29:08;;;;;;;;;0.00;0.00;;;;;;;;5075325;27;45314;-71
2022/02/18 11:31:39;;;;;;;;;0.00;0.00;;;;;;;;5085875;27;46394;-71
2022/02/18 11:34:04;;;;;;;;;0.00;0.00;;;;;;;;5060119;28;45474;-71
2022/02/18 11:36:46;;;;;;;;;0.00;0.00;;;;;;;;5075087;28;45244;-71
2022/02/18 11:39:26;;;;;;;;;1.00;0.00;;;;;;;;5062223;28;45754;-71
2022/02/18 11:42:06;;;;;;;;;0.00;0.00;;;;;;;;5073488;28;46042;-73
2022/02/18 11:44:33;;;;;;;;;0.00;0.00;;;;;;;;5077483;27;45539;-72
2022/02/18 11:47:27;;;;;;;;;0.00;0.00;;;;;;;;5075433;28;45270;-72
2022/02/18 11:49:53;;;;;;;;;0.00;0.00;;;;;;;;5069983;28;45527;-74
2022/02/18 11:52:19;;;;;;;;;0.00;0.00;;;;;;;;5074900;28;47056;-74
2022/02/18 11:54:45;;;;;;;;;0.00;0.00;;;;;;;;5075420;28;45489;-72
2022/02/18 11:57:11;;;;;;;;;0.00;0.00;;;;;;;;5076773;27;45445;-72
2022/02/18 11:59:43;;;;;;;;;0.00;0.00;;;;;;;;5078097;27;45422;-72
2022/02/18 12:02:09;;;;;;;;;0.00;0.00;;;;;;;;5074898;28;47148;-73
2022/02/18 12:04:35;;;;;;;;;0.00;0.00;;;;;;;;5074988;28;45240;-72
2022/02/18 12:07:19;;;;;;;;;0.00;0.00;;;;;;;;5073404;27;45538;-73
2022/02/18 12:09:47;;;;;;;;;0.00;0.00;;;;;;;;5072100;28;45209;-73
2022/02/18 12:12:20;;;;;;;;;0.00;0.00;;;;;;;;5074856;28;46145;-72
2022/02/18 12:14:49;;;;;;;;;0.00;0.00;;;;;;;;5074676;28;45574;-71
2022/02/18 12:17:14;;;;;;;;;0.00;0.00;;;;;;;;5074968;28;45644;-71
2022/02/18 12:19:40;;;;;;;;;0.00;0.00;;;;;;;;5074913;28;45604;-72
2022/02/18 12:22:05;;;;;;;;;0.00;0.00;;;;;;;;5074757;27;48191;-72
2022/02/18 12:24:31;;;;;;;;;0.00;0.00;;;;;;;;5075263;28;45353;-72
2022/02/18 12:27:14;;;;;;;;;1.00;0.00;;;;;;;;5074781;28;45291;-72
2022/02/18 12:29:39;;;;;;;;;0.00;0.00;;;;;;;;5074615;27;45537;-71
2022/02/18 12:32:05;;;;;;;;;1.00;0.00;;;;;;;;5074666;28;46112;-71
2022/02/18 12:34:33;;;;;;;;;0.00;0.00;;;;;;;;5074514;28;45400;-71
2022/02/18 12:36:58;;;;;;;;;0.67;0.00;;;;;;;;5074027;28;45304;-72
2022/02/18 12:39:42;;;;;;;;;1.00;1.00;;;;;;;;5075357;28;45348;-71
2022/02/18 12:42:19;;;;;;;;;0.00;0.00;;;;;;;;5062214;28;46165;-69
2022/02/18 12:44:44;;;;;;;;;0.00;0.00;;;;;;;;5069310;28;46122;-69
2022/02/18 12:47:10;;;;;;;;;0.67;0.00;;;;;;;;5069073;28;45450;-69
2022/02/18 12:49:39;;;;;;;;;0.00;0.00;;;;;;;;5070920;27;45502;-69
2022/02/18 12:52:06;;;;;;;;;0.00;0.00;;;;;;;;5069379;27;46287;-69
2022/02/18 12:55:06;;;;;;;;;0.00;0.00;;;;;;;;5073489;28;45445;-68
2022/02/18 12:57:37;;;;;;;;;0.00;0.00;;;;;;;;5030242;28;45424;-69
2022/02/18 13:00:04;;;;;;;;;0.00;0.00;;;;;;;;5030861;28;45341;-70
2022/02/18 13:02:38;;;;;;;;;1.00;0.00;;;;;;;;5030811;28;50309;-72
2022/02/18 13:05:08;;;;;;;;;0.33;0.00;;;;;;;;5014472;28;45550;-69
2022/02/18 13:07:55;;;;;;;;;1.67;0.00;;;;;;;;5030992;28;45729;-70
2022/02/18 13:10:21;;;;;;;;;0.00;0.00;;;;;;;;5016802;28;45554;-70
2022/02/18 13:12:48;;;;;;;;;0.00;0.00;;;;;;;;5031241;28;45526;-70
2022/02/18 13:15:15;;;;;;;;;0.00;0.00;;;;;;;;5031993;28;45400;-69
2022/02/18 13:17:45;;;;;;;;;0.00;0.00;;;;;;;;5032242;28;45301;-70
2022/02/18 13:20:12;;;;;;;;;0.00;0.00;;;;;;;;5034669;28;45415;-70
2022/02/18 13:22:37;;;;;;;;;0.00;0.00;;;;;;;;5033931;28;47578;-69
2022/02/18 13:25:38;;;;;;;;;0.00;0.00;;;;;;;;5034160;28;45474;-69
2022/02/18 13:28:05;;;;;;;;;0.00;0.00;;;;;;;;4956529;28;45516;-70
2022/02/18 13:30:32;;;;;;;;;1.00;1.00;;;;;;;;4964049;28;45299;-69
2022/02/18 13:32:58;;;;;;;;;0.00;0.00;;;;;;;;4995775;28;47380;-69
2022/02/18 13:35:24;;;;;;;;;0.00;0.00;;;;;;;;4994848;28;45524;-69
2022/02/18 13:37:50;;;;;;;;;0.00;0.00;;;;;;;;4994951;28;45523;-69
2022/02/18 13:40:15;;;;;;;;;0.00;0.00;;;;;;;;4995194;28;45322;-70
2022/02/18 13:42:46;;;;;;;;;0.00;0.00;;;;;;;;4995227;28;46217;-70
2022/02/18 13:45:13;;;;;;;;;0.50;0.50;;;;;;;;4995592;28;45432;-70
2022/02/18 13:47:41;;;;;;;;;0.00;0.00;;;;;;;;4994587;28;45317;-69
2022/02/18 13:50:07;;;;;;;;;0.00;0.00;;;;;;;;4994303;28;45362;-70
2022/02/18 13:52:32;;;;;;;;;0.00;0.00;;;;;;;;4994632;28;46653;-69
2022/02/18 13:54:57;;;;;;;;;0.00;0.00;;;;;;;;4994681;28;45333;-69
2022/02/18 13:57:29;;;;;;;;;0.00;0.00;;;;;;;;4995712;28;45361;-69
2022/02/18 13:59:55;;;;;;;;;1.00;0.00;;;;;;;;4994654;28;45699;-70
2022/02/18 14:02:22;;;;;;;;;0.25;0.00;;;;;;;;5046020;28;47016;-70
2022/02/18 14:04:48;;;;;;;;;2.00;0.00;;;;;;;;5076600;28;45430;-69
2022/02/18 14:07:14;;;;;;;;;0.50;0.50;;;;;;;;5077060;28;45433;-69
2022/02/18 14:09:50;;;;;;;;;0.00;0.00;;;;;;;;5077455;28;45475;-69
2022/02/18 14:12:16;;;;;;;;;0.00;0.00;;;;;;;;5077495;28;46144;-70
2022/02/18 14:14:42;;;;;;;;;0.00;0.00;;;;;;;;5076690;28;45468;-73
2022/02/18 14:17:08;;;;;;;;;1.75;0.00;;;;;;;;5076897;28;45516;-73
2022/02/18 14:19:46;;;;;;;;;1.00;0.00;;;;;;;;5076627;28;45445;-73
2022/02/18 14:22:11;;;;;;;;;0.00;0.00;;;;;;;;5061542;28;45507;-73
2022/02/18 14:24:38;;;;;;;;;2.00;0.00;;;;;;;;5077799;28;45270;-73
2022/02/18 14:27:04;;;;;;;;;0.00;0.00;;;;;;;;5077073;27;45337;-73
2022/02/18 14:29:30;;;;;;;;;0.00;0.00;;;;;;;;5075505;28;45445;-73
2022/02/18 14:31:57;;;;;;;;;0.00;0.00;;;;;;;;5076490;28;45402;-75
2022/02/18 14:34:23;;;;;;;;;0.33;0.00;;;;;;;;5076336;28;45504;-74
2022/02/18 14:36:49;;;;;;;;;0.33;0.00;;;;;;;;5077124;28;45384;-73
2022/02/18 14:39:20;;;;;;;;;0.00;0.00;;;;;;;;5077098;28;45473;-73